Cou Falls, Iowa
Current Conditions -  °F | °C
As of 9:52 PM on Sunday 25 Jan 2015 (Local Time) from KCID Reporting Station
Overcast Overcast  
Wind Chill: 15°   Ceiling: 2600
Heat Index: 21°   Visibility: 10mi
Dew Point: 16°   Wind: 5mph
Humidity: 81%   Direction: 50°NE
Pressure: 30.05"   Gusts: NA
Location:  41.8309°N, 91.7193°W
Report Text: KCID 260352Z 05004KT 10SM OVC026 M06/M09 A3005 RMK AO2 SLP188 T10611089
Loading
Personal Weather Stations






























Interactive Weather Map New forecast layout! Learn more

10-Day Weather Forecast

Advertisements
Track Severe Weather on mobile